createdAt,value
2022-11-15T00:02:31.770Z,11.60
2022-11-15T00:06:36.263Z,13.13
2022-11-15T00:11:12.292Z,12.77
2022-11-15T00:15:15.411Z,12.00
2022-11-15T00:19:52.241Z,12.37
2022-11-15T00:23:56.689Z,11.80
2022-11-15T00:28:30.516Z,11.00
2022-11-15T00:32:34.079Z,10.77
2022-11-15T00:37:08.687Z,11.37
2022-11-15T00:41:13.131Z,10.33
2022-11-15T00:45:46.363Z,10.17
2022-11-15T00:49:49.432Z,10.43
2022-11-15T00:53:52.520Z,12.73
2022-11-15T00:58:30.907Z,15.17
2022-11-15T01:02:34.040Z,10.17
2022-11-15T01:06:37.053Z,10.93
2022-11-15T01:11:14.238Z,11.63
2022-11-15T01:15:18.978Z,12.40
2022-11-15T01:19:22.252Z,13.37
2022-11-15T01:23:25.271Z,11.97
2022-11-15T01:27:28.305Z,13.23
2022-11-15T01:32:06.441Z,12.87
2022-11-15T01:36:12.419Z,11.60
2022-11-15T01:40:15.727Z,11.77
2022-11-15T01:44:52.725Z,13.57
2022-11-15T01:49:00.720Z,12.40
2022-11-15T01:53:03.815Z,14.53
2022-11-15T01:57:10.279Z,14.00
2022-11-15T02:01:14.350Z,14.07
2022-11-15T02:05:19.438Z,12.03
2022-11-15T02:09:22.485Z,12.67
2022-11-15T02:13:25.704Z,10.30
2022-11-15T02:18:03.969Z,11.30
2022-11-15T02:22:22.108Z,13.20
2022-11-15T02:27:07.842Z,12.50
2022-11-15T02:31:30.807Z,11.93
2022-11-15T02:35:44.465Z,13.03
2022-11-15T02:40:12.052Z,13.53
2022-11-15T02:44:20.229Z,12.10
2022-11-15T02:48:53.029Z,11.97
2022-11-15T02:52:56.441Z,12.57
2022-11-15T02:57:03.414Z,11.23
2022-11-15T03:01:14.689Z,11.20
2022-11-15T03:05:25.682Z,11.40
2022-11-15T03:09:54.930Z,11.20
2022-11-15T03:14:00.963Z,12.87
2022-11-15T03:18:10.952Z,12.03
2022-11-15T03:22:44.906Z,11.50
2022-11-15T03:27:23.658Z,13.53
2022-11-15T03:31:59.253Z,14.57
2022-11-15T03:36:02.720Z,16.17
2022-11-15T03:40:08.572Z,17.07
2022-11-15T03:44:18.155Z,17.13
2022-11-15T03:48:47.892Z,16.23
2022-11-15T03:52:52.376Z,17.67
2022-11-15T03:57:27.934Z,13.37
2022-11-15T04:01:31.043Z,15.03
2022-11-15T04:05:34.151Z,13.93
2022-11-15T04:09:58.944Z,15.60
2022-11-15T04:14:15.670Z,14.30
2022-11-15T04:18:18.733Z,13.33
2022-11-15T04:22:39.468Z,11.97
2022-11-15T04:26:57.807Z,11.50
2022-11-15T04:31:35.815Z,11.03
2022-11-15T04:36:25.770Z,11.00
2022-11-15T04:40:28.796Z,12.13
2022-11-15T04:44:31.842Z,12.23
2022-11-15T04:48:35.023Z,13.07
2022-11-15T04:53:33.353Z,12.93
2022-11-15T04:58:12.266Z,14.33
2022-11-15T05:02:15.313Z,14.13
2022-11-15T05:06:18.300Z,13.97
2022-11-15T05:10:55.088Z,15.50
2022-11-15T05:15:33.297Z,15.03
2022-11-15T05:19:36.281Z,13.13
2022-11-15T05:23:39.487Z,13.80
2022-11-15T05:27:42.587Z,13.97
2022-11-15T05:32:20.577Z,13.03
2022-11-15T05:36:31.559Z,15.20
2022-11-15T05:40:59.207Z,21.53
2022-11-15T05:45:27.184Z,19.63
2022-11-15T05:49:36.118Z,12.70
2022-11-15T05:54:06.979Z,12.60
2022-11-15T05:58:10.320Z,14.57
2022-11-15T06:02:47.470Z,14.40
2022-11-15T06:06:52.159Z,19.23
2022-11-15T06:11:25.957Z,18.97
2022-11-15T06:15:29.432Z,13.97
2022-11-15T06:19:33.927Z,12.87
2022-11-15T06:23:38.549Z,10.97
2022-11-15T06:28:15.493Z,12.57
2022-11-15T06:32:18.546Z,12.30
2022-11-15T06:36:52.465Z,13.87
2022-11-15T06:40:57.033Z,14.10
2022-11-15T06:45:00.074Z,11.87
2022-11-15T06:49:09.250Z,11.40
2022-11-15T06:53:12.740Z,11.17
2022-11-15T06:57:17.213Z,12.67
2022-11-15T07:01:51.445Z,14.40
2022-11-15T07:06:27.929Z,14.50
2022-11-15T07:10:31.273Z,18.90
2022-11-15T07:15:03.279Z,16.80
2022-11-15T07:19:07.668Z,16.03
2022-11-15T07:23:10.744Z,17.93
2022-11-15T07:27:47.585Z,18.83
2022-11-15T07:31:51.691Z,18.20
2022-11-15T07:36:27.182Z,15.03
2022-11-15T07:40:32.385Z,18.27
2022-11-15T07:44:35.678Z,17.97
2022-11-15T07:49:09.523Z,19.33
2022-11-15T07:53:14.269Z,17.73
2022-11-15T07:57:17.258Z,17.60
2022-11-15T08:01:53.887Z,15.67
2022-11-15T08:05:56.960Z,13.73
2022-11-15T08:10:02.561Z,13.03
2022-11-15T08:14:39.573Z,13.20
2022-11-15T08:18:42.595Z,12.93
2022-11-15T08:22:45.645Z,14.23
2022-11-15T08:26:50.127Z,15.07
2022-11-15T08:30:53.231Z,16.33
2022-11-15T08:34:56.322Z,16.63
2022-11-15T08:39:33.345Z,17.93
2022-11-15T08:43:37.865Z,15.57
2022-11-15T08:47:40.891Z,15.90
2022-11-15T08:51:44.293Z,15.53
2022-11-15T08:55:47.262Z,16.23
2022-11-15T08:59:51.967Z,16.63
2022-11-15T09:04:25.737Z,16.37
2022-11-15T09:08:47.157Z,17.80
2022-11-15T09:12:51.471Z,17.53
2022-11-15T09:16:56.370Z,17.40
2022-11-15T09:20:59.652Z,16.57
2022-11-15T09:25:03.787Z,16.63
2022-11-15T09:29:08.564Z,15.23
2022-11-15T09:33:14.563Z,16.27
2022-11-15T09:37:17.714Z,14.38
2022-11-15T09:41:35.214Z,15.02
2022-11-15T09:46:12.149Z,14.73
2022-11-15T09:50:19.797Z,15.63
2022-11-15T09:54:52.213Z,15.20
2022-11-15T09:59:00.861Z,15.05
2022-11-15T10:03:16.282Z,14.80
2022-11-15T10:07:27.644Z,15.70
2022-11-15T10:11:38.590Z,15.18
2022-11-15T10:15:46.401Z,15.68
2022-11-15T10:20:05.063Z,14.45
2022-11-15T10:24:15.009Z,13.77
2022-11-15T10:28:19.780Z,14.70
2022-11-15T10:32:23.455Z,13.02
2022-11-15T10:37:01.807Z,12.25
2022-11-15T10:41:10.404Z,12.02
2022-11-15T10:45:27.660Z,12.63
2022-11-15T10:49:55.669Z,13.23
2022-11-15T10:54:02.446Z,12.20
2022-11-15T10:58:21.499Z,12.02
2022-11-15T11:02:32.477Z,12.68
2022-11-15T11:06:49.733Z,12.60
2022-11-15T11:11:01.966Z,12.20
2022-11-15T11:15:15.079Z,11.63
2022-11-15T11:19:49.287Z,12.52
2022-11-15T11:23:56.413Z,12.57
2022-11-15T11:28:22.564Z,12.10
2022-11-15T11:32:54.862Z,11.25
2022-11-15T11:37:05.936Z,11.73
2022-11-15T11:41:21.182Z,12.35
2022-11-15T11:46:00.796Z,12.52
2022-11-15T11:50:15.517Z,12.52
2022-11-15T11:54:24.331Z,12.35
2022-11-15T11:58:36.035Z,12.73
2022-11-15T12:02:43.507Z,12.23
2022-11-15T12:07:17.559Z,11.75
2022-11-15T12:11:26.046Z,10.90
2022-11-15T12:15:33.162Z,11.50
2022-11-15T12:20:05.443Z,10.82
2022-11-15T12:24:15.003Z,10.93
2022-11-15T12:28:22.873Z,10.88
2022-11-15T12:32:55.742Z,10.60
2022-11-15T12:36:58.801Z,11.15
2022-11-15T12:41:18.066Z,11.13
2022-11-15T12:45:29.830Z,10.65
2022-11-15T12:50:06.943Z,9.68
2022-11-15T12:54:39.639Z,9.45
2022-11-15T12:58:50.333Z,9.55
2022-11-15T13:03:29.171Z,8.95
2022-11-15T13:08:03.119Z,9.18
2022-11-15T13:12:08.573Z,8.13
2022-11-15T13:16:20.042Z,8.57
2022-11-15T13:20:26.010Z,8.15
2022-11-15T13:24:29.046Z,8.30
2022-11-15T13:28:38.873Z,8.00
2022-11-15T13:32:43.424Z,8.10
2022-11-15T13:36:46.535Z,8.50
2022-11-15T13:41:21.797Z,7.60
2022-11-15T13:45:25.777Z,7.85
2022-11-15T13:50:02.077Z,7.55
2022-11-15T13:54:37.521Z,7.43
2022-11-15T13:58:41.410Z,6.57
2022-11-15T14:02:44.621Z,6.43
2022-11-15T14:06:55.605Z,6.30
2022-11-15T14:11:16.280Z,6.70
2022-11-15T14:15:30.525Z,6.50
2022-11-15T14:19:58.722Z,6.00
2022-11-15T14:24:19.209Z,6.18
2022-11-15T14:28:34.455Z,5.88
2022-11-15T14:32:45.049Z,5.50
2022-11-15T14:37:20.926Z,5.55
2022-11-15T14:41:27.482Z,6.00
2022-11-15T14:45:30.683Z,5.47
2022-11-15T14:50:07.743Z,6.20
2022-11-15T14:54:11.887Z,6.95
2022-11-15T14:58:16.270Z,7.95
2022-11-15T15:02:50.475Z,8.60
2022-11-15T15:06:53.646Z,8.85
2022-11-15T15:10:56.786Z,8.60
2022-11-15T15:15:01.247Z,8.68
2022-11-15T15:19:35.128Z,8.32
2022-11-15T15:23:38.317Z,10.10
2022-11-15T15:28:15.733Z,8.88
2022-11-15T15:32:20.305Z,8.75
2022-11-15T15:36:23.378Z,9.57
2022-11-15T15:41:00.710Z,9.63
2022-11-15T15:45:03.705Z,8.07
2022-11-15T15:49:11.861Z,8.68
2022-11-15T15:53:15.738Z,8.60
2022-11-15T15:57:19.581Z,14.82
2022-11-15T16:01:23.175Z,10.75
2022-11-15T16:06:00.379Z,9.32
2022-11-15T16:10:15.770Z,12.52
2022-11-15T16:14:18.805Z,11.00
2022-11-15T16:18:55.975Z,9.25
2022-11-15T16:23:01.140Z,10.82
2022-11-15T16:27:38.492Z,12.70
2022-11-15T16:31:41.687Z,12.40
2022-11-15T16:35:44.735Z,11.73
2022-11-15T16:40:24.794Z,11.00
2022-11-15T16:44:30.419Z,11.00
2022-11-15T16:48:35.200Z,10.85
2022-11-15T16:52:38.634Z,11.00
2022-11-15T16:57:12.759Z,12.00
2022-11-15T17:01:23.818Z,11.50
2022-11-15T17:05:27.970Z,11.70
2022-11-15T17:09:31.057Z,13.27
2022-11-15T17:13:34.416Z,13.90
2022-11-15T17:17:38.849Z,12.60
2022-11-15T17:21:42.490Z,14.47
2022-11-15T17:25:45.739Z,20.10
2022-11-15T17:29:48.835Z,15.57
2022-11-15T17:33:53.365Z,20.20
2022-11-15T17:38:27.045Z,16.97
2022-11-15T17:42:30.093Z,13.93
2022-11-15T17:46:34.176Z,15.23
2022-11-15T17:51:11.457Z,16.60
2022-11-15T17:55:45.162Z,13.37
2022-11-15T18:00:22.529Z,13.90
2022-11-15T18:04:59.428Z,13.57
2022-11-15T18:09:05.120Z,16.37
2022-11-15T18:13:39.672Z,31.40
2022-11-15T18:18:16.377Z,26.60
2022-11-15T18:22:53.801Z,20.57
2022-11-15T18:26:58.995Z,17.77
2022-11-15T18:31:03.108Z,19.27
2022-11-15T18:35:07.754Z,17.17
2022-11-15T18:39:45.800Z,17.67
2022-11-15T18:44:23.814Z,16.77
2022-11-15T18:48:57.641Z,20.40
2022-11-15T18:53:01.650Z,20.87
2022-11-15T18:57:04.722Z,22.40
2022-11-15T19:01:11.843Z,21.63
2022-11-15T19:05:17.166Z,16.83
2022-11-15T19:09:55.720Z,15.60
2022-11-15T19:14:00.731Z,14.90
2022-11-15T19:18:05.481Z,17.73
2022-11-15T19:22:39.222Z,20.77
2022-11-15T19:27:02.233Z,15.13
2022-11-15T19:31:07.455Z,13.67
2022-11-15T19:35:42.717Z,13.63
2022-11-15T19:40:19.687Z,12.80
2022-11-15T19:44:22.873Z,12.30
2022-11-15T19:48:26.513Z,12.53
2022-11-15T19:52:30.968Z,12.33
2022-11-15T19:56:35.124Z,13.10
2022-11-15T20:01:14.460Z,15.02
2022-11-15T20:05:48.407Z,14.70
2022-11-15T20:09:53.407Z,13.03
2022-11-15T20:13:58.618Z,14.93
2022-11-15T20:18:32.849Z,14.83
2022-11-15T20:22:36.178Z,12.83
2022-11-15T20:27:15.234Z,12.87
2022-11-15T20:31:18.945Z,11.93
2022-11-15T20:35:56.303Z,13.00
2022-11-15T20:39:59.327Z,13.30
2022-11-15T20:44:07.544Z,13.10
2022-11-15T20:48:13.830Z,14.27
2022-11-15T20:52:17.017Z,13.10
2022-11-15T20:56:21.882Z,13.60
2022-11-15T21:01:00.155Z,13.67
2022-11-15T21:05:34.560Z,12.43
2022-11-15T21:10:28.837Z,13.57
2022-11-15T21:14:49.065Z,13.43
2022-11-15T21:18:54.294Z,14.32
2022-11-15T21:22:57.320Z,13.97
2022-11-15T21:27:00.382Z,13.00
2022-11-15T21:31:03.437Z,13.63
2022-11-15T21:35:08.491Z,14.03
2022-11-15T21:39:11.571Z,14.13
2022-11-15T21:43:48.544Z,14.47
2022-11-15T21:48:25.135Z,14.60
2022-11-15T21:52:29.590Z,14.23
2022-11-15T21:56:32.744Z,15.33
2022-11-15T22:00:55.766Z,15.70
2022-11-15T22:04:58.993Z,14.53
2022-11-15T22:09:37.483Z,15.67
2022-11-15T22:14:11.730Z,14.73
2022-11-15T22:18:15.624Z,14.90
2022-11-15T22:22:52.620Z,13.60
2022-11-15T22:26:57.243Z,14.13
2022-11-15T22:31:01.608Z,14.97
2022-11-15T22:35:05.083Z,14.70
2022-11-15T22:39:08.429Z,15.50
2022-11-15T22:43:14.067Z,15.90
2022-11-15T22:47:17.258Z,15.27
2022-11-15T22:51:20.441Z,15.77
2022-11-15T22:55:57.933Z,17.20
2022-11-15T23:00:02.502Z,17.47
2022-11-15T23:04:37.016Z,19.73
2022-11-15T23:08:40.545Z,16.93
2022-11-15T23:13:01.431Z,18.30
2022-11-15T23:17:21.405Z,17.17
2022-11-15T23:21:43.555Z,19.27
2022-11-15T23:26:00.137Z,20.43
2022-11-15T23:30:20.554Z,19.07
2022-11-15T23:34:25.471Z,18.37
2022-11-15T23:38:59.631Z,21.00
2022-11-15T23:43:02.883Z,21.00
2022-11-15T23:47:06.573Z,23.90
2022-11-15T23:51:11.436Z,20.40
2022-11-15T23:55:44.945Z,19.20
2022-11-15T23:59:48.155Z,22.33
